Karmel — 9HA2896 — position and weather

sailwx.info

Track history (hours):
 
Tides and Currents Weather Stations Pressure Air Temp Water Temp Dewpoint Dewpoint Depression Visibility Wind Speed Wind Dir Waves Ship Positions

Karmel

Last reported at 2016-Jun-30 08:11 UTC. Time now 2016-Jun-30 08:41 UTC.
Position N 51°31' E 000°58'.

Length 90 m; draft 3.6 m.

Type: Ship. MMSI: 256632000.

Date/timePositionNaut miles runAvg speedWind from/ knotsBaromVisibWave heightAir tempDewpointWater temp
2016-Jun-30 08:11N 51°31' E 000°58'0 0.0
2016-Jun-30 05:29N 51°31' E 000°58'0 0.0
2016-Jun-30 04:26N 51°31' E 000°58'0 0.1
2016-Jun-30 03:20N 51°31' E 000°58'0 0.0
2016-Jun-30 02:17N 51°31' E 000°59'0 0.0
2016-Jun-30 01:32N 51°31' E 000°59'0 0.0
2016-Jun-30 00:14N 51°31' E 000°59'0 0.0
2016-Jun-29 20:32N 51°31' E 000°58'0 0.0
2016-Jun-29 19:23N 51°31' E 000°58'0 0.0
2016-Jun-29 17:23N 51°31' E 000°58'0 0.0
2016-Jun-29 14:32N 51°31' E 000°58'0 0.0
2016-Jun-29 11:26N 51°31' E 000°59'0 0.0
2016-Jun-29 10:26N 51°31' E 000°59'0 0.0
2016-Jun-29 07:17N 51°31' E 000°58'0 0.1
2016-Jun-29 06:14N 51°31' E 000°58'5 7.1
2016-Jun-29 05:33N 51°33' E 001°05'1211.7
2016-Jun-29 04:33N 51°41' E 001°19'1211.9
2016-Jun-29 03:33N 51°49' E 001°33'1110.7
2016-Jun-29 02:34N 51°50' E 001°51'1110.6
2016-Jun-29 01:33N 51°54' E 002°07'6110.1
2016-Jun-28 19:32N 52°04' E 003°44'9 9.4
2016-Jun-28 18:33N 52°01' E 003°58'1212.2
2016-Jun-28 17:33N 51°55' E 004°15'9 9.4
2016-Jun-28 16:33N 51°50' E 004°28'8 8.1
2016-Jun-28 15:33N 51°45' E 004°38'3 3.0
2016-Jun-28 14:32N 51°42' E 004°37'0 0.0
2016-Jun-28 12:26N 51°42' E 004°37'0 0.0
2016-Jun-28 07:23N 51°42' E 004°37'0 0.0
2016-Jun-28 06:29N 51°42' E 004°37'0 0.0
2016-Jun-28 04:26N 51°42' E 004°37'0 0.0
2016-Jun-28 03:29N 51°42' E 004°37'0 0.0
2016-Jun-28 02:32N 51°42' E 004°37'0 0.0
2016-Jun-28 01:32N 51°42' E 004°37'0 0.0
2016-Jun-28 00:17N 51°42' E 004°37'0 0.0
2016-Jun-27 23:29N 51°42' E 004°37'0 0.0
2016-Jun-27 22:23N 51°42' E 004°37'0 0.0
2016-Jun-27 21:29N 51°42' E 004°37'0 0.0
2016-Jun-27 20:32N 51°42' E 004°37'0 0.0
2016-Jun-27 19:29N 51°42' E 004°37'0 0.0
2016-Jun-27 18:26N 51°42' E 004°37'0 0.0
2016-Jun-27 17:23N 51°42' E 004°37'0 0.0
2016-Jun-27 16:17N 51°42' E 004°37'0 0.0
2016-Jun-27 11:20N 51°42' E 004°37'0 0.0
2016-Jun-27 09:23N 51°42' E 004°37'0 0.0
2016-Jun-27 08:29N 51°42' E 004°37'0 0.0
2016-Jun-27 07:32N 51°42' E 004°37'0 0.0
2016-Jun-27 06:32N 51°42' E 004°37'0 0.0
2016-Jun-25 07:07N 51°42' E 004°37'2 3.4
2016-Jun-25 06:33N 51°43' E 004°37'10 9.5
2016-Jun-25 05:33N 51°50' E 004°26'1111.4
2016-Jun-25 04:33N 51°57' E 004°11'1212.1
2016-Jun-25 03:33N 52°02' E 003°54'8 8.0
2016-Jun-25 02:33N 52°09' E 003°47'1110.3
2016-Jun-25 01:29N 52°20' E 003°47'1312.5
2016-Jun-25 00:27N 52°32' E 003°51'1212.8
2016-Jun-24 23:33N 52°44' E 003°56'2611.6
2016-Jun-24 21:18N 53°06' E 004°17'7 9.6
2016-Jun-24 20:33N 53°11' E 004°26'2410.0
2016-Jun-24 18:11N 53°34' E 004°38'711.4
2016-Jun-24 17:33N 53°40' E 004°42'1212.1
2016-Jun-24 16:33N 53°52' E 004°50'1212.1
2016-Jun-24 15:33N 54°03' E 004°58'1211.9
2016-Jun-24 14:33N 54°13' E 005°07'1411.7
2016-Jun-24 13:23N 54°25' E 005°20'6811.1
2016-Jun-24 07:12N 55°22' E 006°25'11411.5
2016-Jun-23 21:18N 56°58' E 008°14'910.8
2016-Jun-23 20:28N 57°06' E 008°24'1011.2
2016-Jun-23 19:32N 57°14' E 008°37'6211.5
2016-Jun-23 14:08N 57°46' E 010°16'610.4
2016-Jun-23 13:33N 57°48' E 010°26'1010.2
2016-Jun-23 12:33N 57°48' E 010°46'1111.3
2016-Jun-23 11:33N 57°41' E 011°01'1211.6
2016-Jun-23 10:33N 57°33' E 011°17'1111.4
2016-Jun-23 09:33N 57°23' E 011°29'1211.7
2016-Jun-23 08:30N 57°12' E 011°37'1111.5
2016-Jun-23 07:33N 57°02' E 011°44'3711.6
2016-Jun-23 04:21N 56°26' E 012°02'911.5
2016-Jun-23 03:33N 56°17' E 012°08'1211.5
2016-Jun-23 02:33N 56°10' E 012°25'1212.1
2016-Jun-23 01:33N 56°02' E 012°40'1211.9
2016-Jun-23 00:33N 55°50' E 012°44'1211.8
2016-Jun-22 23:33N 55°38' E 012°42'1211.7
2016-Jun-22 22:33N 55°27' E 012°43'1010.1
2016-Jun-22 21:33N 55°17' E 012°48'1111.2
2016-Jun-22 20:33N 55°16' E 013°08'1211.6
2016-Jun-22 19:33N 55°15' E 013°28'1211.6
2016-Jun-22 18:33N 55°15' E 013°48'1211.9
2016-Jun-22 17:33N 55°14' E 014°09'1110.5
2016-Jun-22 16:33N 55°20' E 014°25'1211.8
2016-Jun-22 15:33N 55°28' E 014°39'1211.8
2016-Jun-22 14:33N 55°34' E 014°57'1211.7
2016-Jun-22 13:33N 55°40' E 015°15'1211.6
2016-Jun-22 12:33N 55°46' E 015°33'1411.7
2016-Jun-22 11:20N 55°53' E 015°55'30010.8
2016-Jun-21 07:29N 59°19' E 022°41'  
Track history (hours):
 
Tides and Currents Weather Stations Pressure Air Temp Water Temp Dewpoint Dewpoint Depression Visibility Wind Speed Wind Dir Waves Ship Positions

Karmel

Last reported at 2016-Jun-30 08:11 UTC. Time now 2016-Jun-30 08:41 UTC.
Position N 51°31' E 000°58'.

Length 90 m; draft 3.6 m.

Type: Ship. MMSI: 256632000.

Date/timePositionNaut miles runAvg speedWind from/ knotsBaromVisibWave heightAir tempDewpointWater temp
2016-Jun-30 08:11N 51°31' E 000°58'0 0.0
2016-Jun-30 05:29N 51°31' E 000°58'0 0.0
2016-Jun-30 04:26N 51°31' E 000°58'0 0.1
2016-Jun-30 03:20N 51°31' E 000°58'0 0.0
2016-Jun-30 02:17N 51°31' E 000°59'0 0.0
2016-Jun-30 01:32N 51°31' E 000°59'0 0.0
2016-Jun-30 00:14N 51°31' E 000°59'0 0.0
2016-Jun-29 20:32N 51°31' E 000°58'0 0.0
2016-Jun-29 19:23N 51°31' E 000°58'0 0.0
2016-Jun-29 17:23N 51°31' E 000°58'0 0.0
2016-Jun-29 14:32N 51°31' E 000°58'0 0.0
2016-Jun-29 11:26N 51°31' E 000°59'0 0.0
2016-Jun-29 10:26N 51°31' E 000°59'0 0.0
2016-Jun-29 07:17N 51°31' E 000°58'0 0.1
2016-Jun-29 06:14N 51°31' E 000°58'5 7.1
2016-Jun-29 05:33N 51°33' E 001°05'1211.7
2016-Jun-29 04:33N 51°41' E 001°19'1211.9
2016-Jun-29 03:33N 51°49' E 001°33'1110.7
2016-Jun-29 02:34N 51°50' E 001°51'1110.6
2016-Jun-29 01:33N 51°54' E 002°07'6110.1
2016-Jun-28 19:32N 52°04' E 003°44'9 9.4
2016-Jun-28 18:33N 52°01' E 003°58'1212.2
2016-Jun-28 17:33N 51°55' E 004°15'9 9.4
2016-Jun-28 16:33N 51°50' E 004°28'8 8.1
2016-Jun-28 15:33N 51°45' E 004°38'3 3.0
2016-Jun-28 14:32N 51°42' E 004°37'0 0.0
2016-Jun-28 12:26N 51°42' E 004°37'0 0.0
2016-Jun-28 07:23N 51°42' E 004°37'0 0.0
2016-Jun-28 06:29N 51°42' E 004°37'0 0.0
2016-Jun-28 04:26N 51°42' E 004°37'0 0.0
2016-Jun-28 03:29N 51°42' E 004°37'0 0.0
2016-Jun-28 02:32N 51°42' E 004°37'0 0.0
2016-Jun-28 01:32N 51°42' E 004°37'0 0.0
2016-Jun-28 00:17N 51°42' E 004°37'0 0.0
2016-Jun-27 23:29N 51°42' E 004°37'0 0.0
2016-Jun-27 22:23N 51°42' E 004°37'0 0.0
2016-Jun-27 21:29N 51°42' E 004°37'0 0.0
2016-Jun-27 20:32N 51°42' E 004°37'0 0.0
2016-Jun-27 19:29N 51°42' E 004°37'0 0.0
2016-Jun-27 18:26N 51°42' E 004°37'0 0.0
2016-Jun-27 17:23N 51°42' E 004°37'0 0.0
2016-Jun-27 16:17N 51°42' E 004°37'0 0.0
2016-Jun-27 11:20N 51°42' E 004°37'0 0.0
2016-Jun-27 09:23N 51°42' E 004°37'0 0.0
2016-Jun-27 08:29N 51°42' E 004°37'0 0.0
2016-Jun-27 07:32N 51°42' E 004°37'0 0.0
2016-Jun-27 06:32N 51°42' E 004°37'0 0.0
2016-Jun-25 07:07N 51°42' E 004°37'2 3.4
2016-Jun-25 06:33N 51°43' E 004°37'10 9.5
2016-Jun-25 05:33N 51°50' E 004°26'1111.4
2016-Jun-25 04:33N 51°57' E 004°11'1212.1
2016-Jun-25 03:33N 52°02' E 003°54'8 8.0
2016-Jun-25 02:33N 52°09' E 003°47'1110.3
2016-Jun-25 01:29N 52°20' E 003°47'1312.5
2016-Jun-25 00:27N 52°32' E 003°51'1212.8
2016-Jun-24 23:33N 52°44' E 003°56'2611.6
2016-Jun-24 21:18N 53°06' E 004°17'7 9.6
2016-Jun-24 20:33N 53°11' E 004°26'2410.0
2016-Jun-24 18:11N 53°34' E 004°38'711.4
2016-Jun-24 17:33N 53°40' E 004°42'1212.1
2016-Jun-24 16:33N 53°52' E 004°50'1212.1
2016-Jun-24 15:33N 54°03' E 004°58'1211.9
2016-Jun-24 14:33N 54°13' E 005°07'1411.7
2016-Jun-24 13:23N 54°25' E 005°20'6811.1
2016-Jun-24 07:12N 55°22' E 006°25'11411.5
2016-Jun-23 21:18N 56°58' E 008°14'910.8
2016-Jun-23 20:28N 57°06' E 008°24'1011.2
2016-Jun-23 19:32N 57°14' E 008°37'6211.5
2016-Jun-23 14:08N 57°46' E 010°16'610.4
2016-Jun-23 13:33N 57°48' E 010°26'1010.2
2016-Jun-23 12:33N 57°48' E 010°46'1111.3
2016-Jun-23 11:33N 57°41' E 011°01'1211.6
2016-Jun-23 10:33N 57°33' E 011°17'1111.4
2016-Jun-23 09:33N 57°23' E 011°29'1211.7
2016-Jun-23 08:30N 57°12' E 011°37'1111.5
2016-Jun-23 07:33N 57°02' E 011°44'3711.6
2016-Jun-23 04:21N 56°26' E 012°02'911.5
2016-Jun-23 03:33N 56°17' E 012°08'1211.5
2016-Jun-23 02:33N 56°10' E 012°25'1212.1
2016-Jun-23 01:33N 56°02' E 012°40'1211.9
2016-Jun-23 00:33N 55°50' E 012°44'1211.8
2016-Jun-22 23:33N 55°38' E 012°42'1211.7
2016-Jun-22 22:33N 55°27' E 012°43'1010.1
2016-Jun-22 21:33N 55°17' E 012°48'1111.2
2016-Jun-22 20:33N 55°16' E 013°08'1211.6
2016-Jun-22 19:33N 55°15' E 013°28'1211.6
2016-Jun-22 18:33N 55°15' E 013°48'1211.9
2016-Jun-22 17:33N 55°14' E 014°09'1110.5
2016-Jun-22 16:33N 55°20' E 014°25'1211.8
2016-Jun-22 15:33N 55°28' E 014°39'1211.8
2016-Jun-22 14:33N 55°34' E 014°57'1211.7
2016-Jun-22 13:33N 55°40' E 015°15'1211.6
2016-Jun-22 12:33N 55°46' E 015°33'1411.7
2016-Jun-22 11:20N 55°53' E 015°55'30010.8
2016-Jun-21 07:29N 59°19' E 022°41'  

Dump ship's entire track history